Terminal Aerodrome Forecast
Issued by NWS Pueblo, CO

Home | Current Version | Previous Version | Text Only | Print | Product List | Glossary On
Versions: 1 2 3 4 5 6 7 8 9 10 11 12 13 14 15 16 17 18 19 20 21 22 23 24 25 26 27 28 29 30 31 32 33 34 35 36 37 38 39 40
734
FTUS45 KPUB 202329
TAFPUB
TAF
KPUB 202329Z 2100/2124 10006KT P6SM SCT050
     FM210200 33007KT P6SM OVC060
     FM210600 29006KT P6SM BKN120
     FM211900 12006KT P6SM BKN080=

USA.gov is the U.S. government's official web portal to all federal, state and local government web resources and services.